createdAt,value
2023-04-30T00:00:41.493Z,82.47
2023-04-30T00:01:41.509Z,82.47
2023-04-30T00:02:41.569Z,82.57
2023-04-30T00:03:41.587Z,82.47
2023-04-30T00:04:41.435Z,82.47
2023-04-30T00:05:41.451Z,82.47
2023-04-30T00:06:41.528Z,82.57
2023-04-30T00:07:41.415Z,82.47
2023-04-30T00:08:41.398Z,82.47
2023-04-30T00:09:41.394Z,82.37
2023-04-30T00:10:41.400Z,82.37
2023-04-30T00:11:41.372Z,82.27
2023-04-30T00:12:41.362Z,82.17
2023-04-30T00:13:41.351Z,82.06
2023-04-30T00:14:41.329Z,82.06
2023-04-30T00:15:41.360Z,81.82
2023-04-30T00:16:41.364Z,81.92
2023-04-30T00:17:41.349Z,81.92
2023-04-30T00:18:41.296Z,81.71
2023-04-30T00:19:41.294Z,81.62
2023-04-30T00:20:41.298Z,81.51
2023-04-30T00:21:41.267Z,81.41
2023-04-30T00:22:41.388Z,81.30
2023-04-30T00:23:41.247Z,81.41
2023-04-30T00:24:41.241Z,81.41
2023-04-30T00:25:41.239Z,81.41
2023-04-30T00:26:41.225Z,81.30
2023-04-30T00:27:41.242Z,81.30
2023-04-30T00:28:41.187Z,81.30
2023-04-30T00:29:41.199Z,81.30
2023-04-30T00:30:41.243Z,81.10
2023-04-30T00:31:41.177Z,81.10
2023-04-30T00:32:41.181Z,81.00
2023-04-30T00:33:41.142Z,81.10
2023-04-30T00:34:41.145Z,80.90
2023-04-30T00:35:41.134Z,81.00
2023-04-30T00:36:41.133Z,80.79
2023-04-30T00:37:41.099Z,80.69
2023-04-30T00:38:41.096Z,80.49
2023-04-30T00:39:41.103Z,80.49
2023-04-30T00:40:41.068Z,80.58
2023-04-30T00:41:41.083Z,80.38
2023-04-30T00:42:41.046Z,80.18
2023-04-30T00:43:41.040Z,80.18
2023-04-30T00:44:41.026Z,80.28
2023-04-30T00:45:41.112Z,80.28
2023-04-30T00:46:41.027Z,80.18
2023-04-30T00:47:41.041Z,80.38
2023-04-30T00:48:40.985Z,80.07
2023-04-30T00:49:40.996Z,80.18
2023-04-30T00:50:40.964Z,80.18
2023-04-30T00:51:40.976Z,80.18
2023-04-30T00:52:40.940Z,80.18
2023-04-30T00:53:40.934Z,80.18
2023-04-30T00:54:40.929Z,80.28
2023-04-30T00:55:40.913Z,80.18
2023-04-30T00:56:40.919Z,80.07
2023-04-30T00:57:40.903Z,79.97
2023-04-30T00:58:40.893Z,79.97
2023-04-30T00:59:40.889Z,79.97
2023-04-30T01:00:40.874Z,80.18
2023-04-30T01:01:41.001Z,80.28
2023-04-30T01:02:40.927Z,79.97
2023-04-30T01:03:40.861Z,79.77
2023-04-30T01:04:40.828Z,79.80
2023-04-30T01:05:40.809Z,79.91
2023-04-30T01:06:40.874Z,79.91
2023-04-30T01:07:40.787Z,79.80
2023-04-30T01:08:40.775Z,79.80
2023-04-30T01:09:40.775Z,79.60
2023-04-30T01:10:40.748Z,79.60
2023-04-30T01:11:40.768Z,79.08
2023-04-30T01:12:40.728Z,79.08
2023-04-30T01:13:40.731Z,78.78
2023-04-30T01:14:40.712Z,78.78
2023-04-30T01:15:40.733Z,78.78
2023-04-30T01:16:40.714Z,78.81
2023-04-30T01:17:40.701Z,78.92
2023-04-30T01:18:40.707Z,78.92
2023-04-30T01:19:40.658Z,79.12
2023-04-30T01:20:40.648Z,79.02
2023-04-30T01:21:40.661Z,79.05
2023-04-30T01:22:40.630Z,79.05
2023-04-30T01:23:40.621Z,78.96
2023-04-30T01:24:40.605Z,78.96
2023-04-30T01:25:40.620Z,78.96
2023-04-30T01:26:40.601Z,79.05
2023-04-30T01:27:40.582Z,78.96
2023-04-30T01:28:40.578Z,78.96
2023-04-30T01:29:40.562Z,79.16
2023-04-30T01:30:40.574Z,79.16
2023-04-30T01:31:40.605Z,79.05
2023-04-30T01:32:40.592Z,79.09
2023-04-30T01:33:40.535Z,78.99
2023-04-30T01:34:40.502Z,78.99
2023-04-30T01:35:40.498Z,78.99
2023-04-30T01:36:40.514Z,78.99
2023-04-30T01:37:40.482Z,79.13
2023-04-30T01:38:40.468Z,79.44
2023-04-30T01:39:40.457Z,79.40
2023-04-30T01:40:40.443Z,79.40
2023-04-30T01:41:40.462Z,79.23
2023-04-30T01:42:40.427Z,79.54
2023-04-30T01:43:40.426Z,79.33
2023-04-30T01:44:40.420Z,79.33
2023-04-30T01:45:40.390Z,79.13
2023-04-30T01:46:40.450Z,79.44
2023-04-30T01:47:40.409Z,79.64
2023-04-30T01:48:40.362Z,79.75
2023-04-30T01:49:40.354Z,79.85
2023-04-30T01:50:40.340Z,79.75
2023-04-30T01:51:40.354Z,79.64
2023-04-30T01:52:40.316Z,79.58
2023-04-30T01:53:40.319Z,79.58
2023-04-30T01:54:40.302Z,79.68
2023-04-30T01:55:40.296Z,79.68
2023-04-30T01:56:40.298Z,79.68
2023-04-30T01:57:40.275Z,79.47
2023-04-30T01:58:40.258Z,79.37
2023-04-30T01:59:40.261Z,79.47
2023-04-30T02:00:40.253Z,79.58
2023-04-30T02:01:40.290Z,79.58
2023-04-30T02:02:40.330Z,79.68
2023-04-30T02:03:40.289Z,79.58
2023-04-30T02:04:40.204Z,79.79
2023-04-30T02:05:40.193Z,79.79
2023-04-30T02:06:40.363Z,79.37
2023-04-30T02:07:40.172Z,79.37
2023-04-30T02:08:40.161Z,79.51
2023-04-30T02:09:40.149Z,79.30
2023-04-30T02:10:40.136Z,79.20
2023-04-30T02:11:40.148Z,79.20
2023-04-30T02:12:40.123Z,79.20
2023-04-30T02:13:40.111Z,79.41
2023-04-30T02:14:40.094Z,79.41
2023-04-30T02:15:40.090Z,79.41
2023-04-30T02:16:40.202Z,79.41
2023-04-30T02:17:40.099Z,79.51
2023-04-30T02:18:40.056Z,79.61
2023-04-30T02:19:40.052Z,79.72
2023-04-30T02:20:40.036Z,79.72
2023-04-30T02:21:40.056Z,79.72
2023-04-30T02:22:40.015Z,79.72
2023-04-30T02:23:40.013Z,79.72
2023-04-30T02:24:39.991Z,79.51
2023-04-30T02:25:39.992Z,79.34
2023-04-30T02:26:39.989Z,79.34
2023-04-30T02:27:39.962Z,79.24
2023-04-30T02:28:39.956Z,79.14
2023-04-30T02:29:39.951Z,79.24
2023-04-30T02:30:39.931Z,79.65
2023-04-30T02:31:39.968Z,79.86
2023-04-30T02:32:39.962Z,79.55
2023-04-30T02:33:39.906Z,79.44
2023-04-30T02:34:39.894Z,79.34
2023-04-30T02:35:39.903Z,79.24
2023-04-30T02:36:39.872Z,79.55
2023-04-30T02:37:39.908Z,79.34
2023-04-30T02:38:39.853Z,79.24
2023-04-30T02:39:39.855Z,79.17
2023-04-30T02:40:39.843Z,79.27
2023-04-30T02:41:39.832Z,79.17
2023-04-30T02:42:39.848Z,79.14
2023-04-30T02:43:39.802Z,79.17
2023-04-30T02:44:39.787Z,79.17
2023-04-30T02:45:39.807Z,79.27
2023-04-30T02:46:39.771Z,79.17
2023-04-30T02:47:39.825Z,79.27
2023-04-30T02:48:39.751Z,79.27
2023-04-30T02:49:39.736Z,79.38
2023-04-30T02:50:39.727Z,79.38
2023-04-30T02:51:39.728Z,79.17
2023-04-30T02:52:39.730Z,79.27
2023-04-30T02:53:39.703Z,79.48
2023-04-30T02:54:39.690Z,79.90
2023-04-30T02:55:39.687Z,79.79
2023-04-30T02:56:39.668Z,79.58
2023-04-30T02:57:39.677Z,79.69
2023-04-30T02:58:39.646Z,79.69
2023-04-30T02:59:39.638Z,79.69
2023-04-30T03:00:39.624Z,79.69
2023-04-30T03:01:39.709Z,79.90
2023-04-30T03:02:39.667Z,80.10
2023-04-30T03:03:39.618Z,80.00
2023-04-30T03:04:39.590Z,80.20
2023-04-30T03:05:39.575Z,80.30
2023-04-30T03:06:39.698Z,80.41
2023-04-30T03:07:39.585Z,80.20
2023-04-30T03:08:39.544Z,80.30
2023-04-30T03:09:39.542Z,80.72
2023-04-30T03:10:39.525Z,80.51
2023-04-30T03:11:39.522Z,80.41
2023-04-30T03:12:39.533Z,80.72
2023-04-30T03:13:39.500Z,80.72
2023-04-30T03:14:39.483Z,80.72
2023-04-30T03:15:39.481Z,80.41
2023-04-30T03:16:39.489Z,80.00
2023-04-30T03:17:39.504Z,79.79
2023-04-30T03:18:39.449Z,79.58
2023-04-30T03:19:39.434Z,79.69
2023-04-30T03:20:39.429Z,79.83
2023-04-30T03:21:39.422Z,79.72
2023-04-30T03:22:39.422Z,79.52
2023-04-30T03:23:39.408Z,79.41
2023-04-30T03:24:39.390Z,79.41
2023-04-30T03:25:39.378Z,79.52
2023-04-30T03:26:39.360Z,79.52
2023-04-30T03:27:39.375Z,79.52
2023-04-30T03:28:39.342Z,79.72
2023-04-30T03:29:39.342Z,79.93
2023-04-30T03:30:39.323Z,79.83
2023-04-30T03:31:39.337Z,79.93
2023-04-30T03:32:39.363Z,79.83
2023-04-30T03:33:39.316Z,79.83
2023-04-30T03:34:39.293Z,79.72
2023-04-30T03:35:39.275Z,79.72
2023-04-30T03:36:39.262Z,79.72
2023-04-30T03:37:39.274Z,79.72
2023-04-30T03:38:39.243Z,79.93
2023-04-30T03:39:39.240Z,80.14
2023-04-30T03:40:39.233Z,79.83
2023-04-30T03:41:39.215Z,80.04
2023-04-30T03:42:39.223Z,79.93
2023-04-30T03:43:39.203Z,80.04
2023-04-30T03:44:39.210Z,80.04
2023-04-30T03:45:39.179Z,80.34
2023-04-30T03:46:39.255Z,80.65
2023-04-30T03:47:39.193Z,80.76
2023-04-30T03:48:39.147Z,80.65
2023-04-30T03:49:39.206Z,80.76
2023-04-30T03:50:39.125Z,80.96
2023-04-30T03:51:39.120Z,81.17
2023-04-30T03:52:39.139Z,80.96
2023-04-30T03:53:39.056Z,81.37
2023-04-30T03:54:39.033Z,81.37
2023-04-30T03:55:39.023Z,81.48
2023-04-30T03:56:39.020Z,81.68
2023-04-30T03:57:39.027Z,81.58
2023-04-30T03:58:39.050Z,81.58
2023-04-30T03:59:39.038Z,81.99
2023-04-30T04:00:39.026Z,82.10
2023-04-30T04:01:39.058Z,82.10
2023-04-30T04:02:39.021Z,82.20
2023-04-30T04:03:39.069Z,82.10
2023-04-30T04:04:39.004Z,82.30
2023-04-30T04:05:38.974Z,82.20
2023-04-30T04:06:38.992Z,82.30
2023-04-30T04:07:38.957Z,82.89
2023-04-30T04:08:38.965Z,82.78
2023-04-30T04:09:38.928Z,82.57
2023-04-30T04:10:38.885Z,82.16
2023-04-30T04:11:38.860Z,82.26
2023-04-30T04:12:38.901Z,82.16
2023-04-30T04:13:38.922Z,81.96
2023-04-30T04:14:38.889Z,81.85
2023-04-30T04:15:38.911Z,81.75
2023-04-30T04:16:38.848Z,81.75
2023-04-30T04:17:38.881Z,81.44
2023-04-30T04:18:38.867Z,81.44
2023-04-30T04:19:38.788Z,81.54
2023-04-30T04:20:38.773Z,81.54
2023-04-30T04:21:38.759Z,81.34
2023-04-30T04:22:38.761Z,81.13
2023-04-30T04:23:38.765Z,81.23
2023-04-30T04:24:38.740Z,81.23
2023-04-30T04:25:38.717Z,81.23
2023-04-30T04:26:38.732Z,81.03
2023-04-30T04:27:38.725Z,80.93
2023-04-30T04:28:38.720Z,80.93
2023-04-30T04:29:38.679Z,80.93
2023-04-30T04:30:38.679Z,81.03
2023-04-30T04:31:38.804Z,81.23
2023-04-30T04:32:38.666Z,81.34
2023-04-30T04:33:38.657Z,81.44
2023-04-30T04:34:38.652Z,81.34
2023-04-30T04:35:38.611Z,81.34
2023-04-30T04:36:38.605Z,81.23
2023-04-30T04:37:38.594Z,81.23
2023-04-30T04:38:38.611Z,81.13
2023-04-30T04:39:38.571Z,81.23
2023-04-30T04:40:38.564Z,81.03
2023-04-30T04:41:38.555Z,81.03
2023-04-30T04:42:38.561Z,81.13
2023-04-30T04:43:38.566Z,81.34
2023-04-30T04:44:38.524Z,81.65
2023-04-30T04:45:38.553Z,81.85
2023-04-30T04:46:38.717Z,82.16
2023-04-30T04:47:38.563Z,81.85
2023-04-30T04:48:38.505Z,81.96
2023-04-30T04:49:38.476Z,81.96
2023-04-30T04:50:38.458Z,82.57
2023-04-30T04:51:38.468Z,82.78
2023-04-30T04:52:38.436Z,82.89
2023-04-30T04:53:38.445Z,82.78
2023-04-30T04:54:38.490Z,82.78
2023-04-30T04:55:38.415Z,82.78
2023-04-30T04:56:38.409Z,82.98
2023-04-30T04:57:38.501Z,83.61
2023-04-30T04:58:38.456Z,83.91
2023-04-30T04:59:38.453Z,84.01
2023-04-30T05:00:38.369Z,84.01
2023-04-30T05:01:38.508Z,83.91
2023-04-30T05:02:38.417Z,84.01
2023-04-30T05:03:38.395Z,84.01
2023-04-30T05:04:38.329Z,84.22
2023-04-30T05:05:38.309Z,84.43
2023-04-30T05:06:38.339Z,84.53
2023-04-30T05:07:38.295Z,85.15
2023-04-30T05:08:38.323Z,85.46
2023-04-30T05:09:38.274Z,85.77
2023-04-30T05:10:38.256Z,85.73
2023-04-30T05:11:38.245Z,86.04
2023-04-30T05:12:38.242Z,86.35
2023-04-30T05:13:38.245Z,86.66
2023-04-30T05:14:38.220Z,86.66
2023-04-30T05:15:38.206Z,86.87
2023-04-30T05:16:38.406Z,86.76
2023-04-30T05:17:38.195Z,86.76
2023-04-30T05:18:38.198Z,86.72
2023-04-30T05:19:38.168Z,86.72
2023-04-30T05:20:38.165Z,86.93
2023-04-30T05:21:38.151Z,86.82
2023-04-30T05:22:38.144Z,86.93
2023-04-30T05:23:38.155Z,86.88
2023-04-30T05:24:38.133Z,86.68
2023-04-30T05:25:38.109Z,86.58
2023-04-30T05:26:38.107Z,86.68
2023-04-30T05:27:38.088Z,86.68
2023-04-30T05:28:38.093Z,86.68
2023-04-30T05:29:38.060Z,86.68
2023-04-30T05:30:38.118Z,86.68
2023-04-30T05:31:38.065Z,86.68
2023-04-30T05:32:38.054Z,86.85
2023-04-30T05:33:38.052Z,87.05
2023-04-30T05:34:38.019Z,86.95
2023-04-30T05:35:38.001Z,86.64
2023-04-30T05:36:38.025Z,86.54
2023-04-30T05:37:37.981Z,86.50
2023-04-30T05:38:37.997Z,86.29
2023-04-30T05:39:37.966Z,86.19
2023-04-30T05:40:37.958Z,86.08
2023-04-30T05:41:37.946Z,85.78
2023-04-30T05:42:37.951Z,85.33
2023-04-30T05:43:38.543Z,84.91
2023-04-30T05:44:37.914Z,84.30
2023-04-30T05:45:37.915Z,83.48
2023-04-30T05:46:37.903Z,83.17
2023-04-30T05:47:37.954Z,83.13
2023-04-30T05:48:37.873Z,83.13
2023-04-30T05:49:37.882Z,83.03
2023-04-30T05:50:37.851Z,82.62
2023-04-30T05:51:37.848Z,81.79
2023-04-30T05:52:37.832Z,81.65
2023-04-30T05:53:37.814Z,81.65
2023-04-30T05:54:37.831Z,81.24
2023-04-30T05:55:37.810Z,80.21
2023-04-30T05:56:37.804Z,79.19
2023-04-30T05:57:37.775Z,78.78
2023-04-30T05:58:37.767Z,78.27
2023-04-30T05:59:37.781Z,77.03
2023-04-30T06:00:37.753Z,77.00
2023-04-30T06:01:37.765Z,77.30
2023-04-30T06:02:37.792Z,77.61
2023-04-30T06:03:37.740Z,77.71
2023-04-30T06:04:37.725Z,77.00
2023-04-30T06:05:37.749Z,76.17
2023-04-30T06:06:37.749Z,76.07
2023-04-30T06:07:37.710Z,76.17
2023-04-30T06:08:37.674Z,76.28
2023-04-30T06:09:37.676Z,76.68
2023-04-30T06:10:37.651Z,76.45
2023-04-30T06:11:37.633Z,75.62
2023-04-30T06:12:37.631Z,75.21
2023-04-30T06:13:37.613Z,73.98
2023-04-30T06:14:37.646Z,73.16
2023-04-30T06:15:37.612Z,73.27
2023-04-30T06:16:37.634Z,72.65
2023-04-30T06:17:37.600Z,72.65
2023-04-30T06:18:37.571Z,72.85
2023-04-30T06:19:37.568Z,72.03
2023-04-30T06:20:37.548Z,72.44
2023-04-30T06:21:37.535Z,71.93
2023-04-30T06:22:37.532Z,72.14
2023-04-30T06:23:37.512Z,72.24
2023-04-30T06:24:37.525Z,72.75
2023-04-30T06:25:37.521Z,72.75
2023-04-30T06:26:38.923Z,72.65
2023-04-30T06:27:37.470Z,72.85
2023-04-30T06:28:37.487Z,72.85
2023-04-30T06:29:37.478Z,71.90
2023-04-30T06:30:37.447Z,71.39
2023-04-30T06:31:37.505Z,71.08
2023-04-30T06:32:37.477Z,70.87
2023-04-30T06:33:37.407Z,70.77
2023-04-30T06:34:37.438Z,70.67
2023-04-30T06:35:37.401Z,70.36
2023-04-30T06:36:37.383Z,70.77
2023-04-30T06:37:37.378Z,71.18
2023-04-30T06:38:37.395Z,71.28
2023-04-30T06:39:37.360Z,70.67
2023-04-30T06:40:37.358Z,70.87
2023-04-30T06:41:37.337Z,71.04
2023-04-30T06:42:37.323Z,71.15
2023-04-30T06:43:37.311Z,71.04
2023-04-30T06:44:37.321Z,71.04
2023-04-30T06:45:37.297Z,71.25
2023-04-30T06:46:37.335Z,71.25
2023-04-30T06:47:37.322Z,71.22
2023-04-30T06:48:37.256Z,71.22
2023-04-30T06:49:37.279Z,71.42
2023-04-30T06:50:37.236Z,71.42
2023-04-30T06:51:37.223Z,71.32
2023-04-30T06:52:37.217Z,71.42
2023-04-30T06:53:37.200Z,71.73
2023-04-30T06:54:37.220Z,71.93
2023-04-30T06:55:37.185Z,72.00
2023-04-30T06:56:37.181Z,70.98
2023-04-30T06:57:37.913Z,71.18
2023-04-30T06:58:37.158Z,70.47
2023-04-30T06:59:37.160Z,69.95
2023-04-30T07:00:37.132Z,69.95
2023-04-30T07:01:37.138Z,70.47
2023-04-30T07:02:37.191Z,70.16
2023-04-30T07:03:37.151Z,70.43
2023-04-30T07:04:37.112Z,68.90
2023-04-30T07:05:37.077Z,69.00
2023-04-30T07:06:37.191Z,69.20
2023-04-30T07:07:37.058Z,68.79
2023-04-30T07:08:37.066Z,69.00
2023-04-30T07:09:37.048Z,68.90
2023-04-30T07:10:37.035Z,69.58
2023-04-30T07:11:37.025Z,68.76
2023-04-30T07:12:37.010Z,67.74
2023-04-30T07:13:37.017Z,67.64
2023-04-30T07:14:36.989Z,67.74
2023-04-30T07:15:36.984Z,66.82
2023-04-30T07:16:36.975Z,66.69
2023-04-30T07:17:36.985Z,66.48
2023-04-30T07:18:36.964Z,66.69
2023-04-30T07:19:36.934Z,66.99
2023-04-30T07:20:36.926Z,67.19
2023-04-30T07:21:36.911Z,67.71
2023-04-30T07:22:36.909Z,67.19
2023-04-30T07:23:36.917Z,67.07
2023-04-30T07:24:36.891Z,66.75
2023-04-30T07:25:36.878Z,65.63
2023-04-30T07:26:36.878Z,66.14
2023-04-30T07:27:36.845Z,66.55
2023-04-30T07:28:36.866Z,66.35
2023-04-30T07:29:36.825Z,66.01
2023-04-30T07:30:36.822Z,65.91
2023-04-30T07:31:36.854Z,66.31
2023-04-30T07:32:36.869Z,65.91
2023-04-30T07:33:36.816Z,65.40
2023-04-30T07:34:36.791Z,65.19
2023-04-30T07:35:36.782Z,65.37
2023-04-30T07:36:36.759Z,65.98
2023-04-30T07:37:37.191Z,65.57
2023-04-30T07:38:36.791Z,64.75
2023-04-30T07:39:36.723Z,65.37
2023-04-30T07:40:36.878Z,65.88
2023-04-30T07:41:36.717Z,65.57
2023-04-30T07:42:36.696Z,64.34
2023-04-30T07:43:36.717Z,64.31
2023-04-30T07:44:36.725Z,64.52
2023-04-30T07:45:36.677Z,64.83
2023-04-30T07:46:36.813Z,64.18
2023-04-30T07:47:36.659Z,63.37
2023-04-30T07:48:36.660Z,63.47
2023-04-30T07:49:36.645Z,64.18
2023-04-30T07:50:36.621Z,65.10
2023-04-30T07:51:36.605Z,65.20
2023-04-30T07:52:36.608Z,64.18
2023-04-30T07:53:36.607Z,62.21
2023-04-30T07:54:36.578Z,62.01
2023-04-30T07:55:36.571Z,62.42
2023-04-30T07:56:36.560Z,62.62
2023-04-30T07:57:36.537Z,63.23
2023-04-30T07:58:36.550Z,63.61
2023-04-30T07:59:36.529Z,62.70
2023-04-30T08:00:36.514Z,62.39
2023-04-30T08:01:36.529Z,61.78
2023-04-30T08:02:36.575Z,61.34
2023-04-30T08:03:36.596Z,60.63
2023-04-30T08:04:36.567Z,60.30
2023-04-30T08:05:36.469Z,59.89
2023-04-30T08:06:36.512Z,58.36
2023-04-30T08:07:36.445Z,57.21
2023-04-30T08:08:36.459Z,57.72
2023-04-30T08:09:36.430Z,58.44
2023-04-30T08:10:36.414Z,58.20
2023-04-30T08:11:36.403Z,57.90
2023-04-30T08:12:36.400Z,58.61
2023-04-30T08:13:36.412Z,59.42
2023-04-30T08:14:36.386Z,59.12
2023-04-30T08:15:36.358Z,58.61
2023-04-30T08:16:36.409Z,58.28
2023-04-30T08:17:36.415Z,57.87
2023-04-30T08:18:36.360Z,56.88
2023-04-30T08:19:36.319Z,57.16
2023-04-30T08:20:38.456Z,54.11
2023-04-30T08:21:36.303Z,52.96
2023-04-30T08:22:36.292Z,53.57
2023-04-30T08:23:36.304Z,54.05
2023-04-30T08:24:36.272Z,55.05
2023-04-30T08:25:36.268Z,54.74
2023-04-30T08:26:36.258Z,55.05
2023-04-30T08:27:36.255Z,54.72
2023-04-30T08:28:36.302Z,55.43
2023-04-30T08:29:36.226Z,56.04
2023-04-30T08:30:36.209Z,56.04
2023-04-30T08:31:36.315Z,56.24
2023-04-30T08:32:36.205Z,56.21
2023-04-30T08:33:36.201Z,55.40
2023-04-30T08:34:36.177Z,54.46
2023-04-30T08:35:36.157Z,54.36
2023-04-30T08:36:36.138Z,51.70
2023-04-30T08:37:36.138Z,50.96
2023-04-30T08:38:36.142Z,51.35
2023-04-30T08:39:36.116Z,51.75
2023-04-30T08:40:50.096Z,50.82
2023-04-30T08:41:37.094Z,51.02
2023-04-30T08:42:36.084Z,50.99
2023-04-30T08:43:36.089Z,50.59
2023-04-30T08:44:36.069Z,50.09
2023-04-30T08:45:36.050Z,48.97
2023-04-30T08:46:36.224Z,48.74
2023-04-30T08:47:36.065Z,48.74
2023-04-30T08:48:36.042Z,48.82
2023-04-30T08:49:36.017Z,47.91
2023-04-30T08:50:36.018Z,48.32
2023-04-30T08:51:35.995Z,47.89
2023-04-30T08:52:36.000Z,48.78
2023-04-30T08:53:35.972Z,48.05
2023-04-30T08:54:35.975Z,47.62
2023-04-30T08:55:35.954Z,48.22
2023-04-30T08:56:35.932Z,48.63
2023-04-30T08:57:35.947Z,47.42
2023-04-30T08:58:35.931Z,48.33
2023-04-30T08:59:35.905Z,48.53
2023-04-30T09:00:35.896Z,48.02
2023-04-30T09:01:35.900Z,46.81
2023-04-30T09:02:35.971Z,47.42
2023-04-30T09:03:36.086Z,47.80
2023-04-30T09:04:35.866Z,47.09
2023-04-30T09:05:35.848Z,45.78
2023-04-30T09:06:35.905Z,44.35
2023-04-30T09:07:35.865Z,43.52
2023-04-30T09:08:35.808Z,43.62
2023-04-30T09:09:35.809Z,43.80
2023-04-30T09:10:35.811Z,44.61
2023-04-30T09:11:35.789Z,43.12
2023-04-30T09:12:35.786Z,43.22
2023-04-30T09:13:35.777Z,43.62
2023-04-30T09:14:35.757Z,44.51
2023-04-30T09:15:35.756Z,43.10
2023-04-30T09:16:35.771Z,41.47
2023-04-30T09:17:35.904Z,40.95
2023-04-30T09:18:35.712Z,40.62
2023-04-30T09:19:35.714Z,41.23
2023-04-30T09:20:35.695Z,41.03
2023-04-30T09:21:35.707Z,40.30
2023-04-30T09:22:35.725Z,39.28
2023-04-30T09:23:35.670Z,40.17
2023-04-30T09:24:35.643Z,40.37
2023-04-30T09:25:35.642Z,41.25
2023-04-30T09:26:35.638Z,40.73
2023-04-30T09:27:35.648Z,39.93
2023-04-30T09:28:35.602Z,40.93
2023-04-30T09:29:35.597Z,40.95
2023-04-30T09:30:35.580Z,41.57
2023-04-30T09:31:35.728Z,42.07
2023-04-30T09:32:35.602Z,43.48
2023-04-30T09:33:35.563Z,43.38
2023-04-30T09:34:35.562Z,43.98
2023-04-30T09:35:35.536Z,41.85
2023-04-30T09:36:35.528Z,41.03
2023-04-30T09:37:35.530Z,41.43
2023-04-30T09:38:35.505Z,39.89
2023-04-30T09:39:35.497Z,39.17
2023-04-30T09:40:35.495Z,39.07
2023-04-30T09:41:35.473Z,39.37
2023-04-30T09:42:35.483Z,38.67
2023-04-30T09:43:35.452Z,37.85
2023-04-30T09:44:35.450Z,39.05
2023-04-30T09:45:35.452Z,38.45
2023-04-30T09:46:35.476Z,38.43
2023-04-30T09:47:35.489Z,37.73
2023-04-30T09:48:35.444Z,38.63
2023-04-30T09:49:35.395Z,38.73
2023-04-30T09:50:35.376Z,40.13
2023-04-30T09:51:35.374Z,39.33
2023-04-30T09:52:35.357Z,39.83
2023-04-30T09:53:35.368Z,39.83
2023-04-30T09:54:35.338Z,40.03
2023-04-30T09:55:35.332Z,39.55
2023-04-30T09:56:35.322Z,39.05
2023-04-30T09:57:35.337Z,39.35
2023-04-30T09:58:35.313Z,37.83
2023-04-30T09:59:35.340Z,37.01
2023-04-30T10:00:35.300Z,36.90
2023-04-30T10:01:35.270Z,37.48
2023-04-30T10:02:35.268Z,38.18
2023-04-30T10:03:35.292Z,38.29
2023-04-30T10:04:35.243Z,38.20
2023-04-30T10:05:35.231Z,36.98
2023-04-30T10:06:35.362Z,36.46
2023-04-30T10:07:35.213Z,36.76
2023-04-30T10:08:35.220Z,38.76
2023-04-30T10:09:35.190Z,37.77
2023-04-30T10:10:35.173Z,37.26
2023-04-30T10:11:35.168Z,36.66
2023-04-30T10:12:35.156Z,36.64
2023-04-30T10:13:35.170Z,36.74
2023-04-30T10:14:35.146Z,36.74
2023-04-30T10:15:35.139Z,36.84
2023-04-30T10:16:35.137Z,37.82
2023-04-30T10:17:35.141Z,38.22
2023-04-30T10:18:35.108Z,37.82
2023-04-30T10:19:35.087Z,37.90
2023-04-30T10:20:35.105Z,37.10
2023-04-30T10:21:35.065Z,35.89
2023-04-30T10:22:35.046Z,34.98
2023-04-30T10:23:35.065Z,34.46
2023-04-30T10:24:35.035Z,33.95
2023-04-30T10:25:35.058Z,33.85
2023-04-30T10:26:35.047Z,35.46
2023-04-30T10:27:35.005Z,34.84
2023-04-30T10:28:35.010Z,33.85
2023-04-30T10:29:35.003Z,33.93
2023-04-30T10:30:34.975Z,33.75
2023-04-30T10:31:35.035Z,34.64
2023-04-30T10:32:34.979Z,34.25
2023-04-30T10:33:34.973Z,33.93
2023-04-30T10:34:34.930Z,33.04
2023-04-30T10:35:34.928Z,32.42
2023-04-30T10:36:34.908Z,32.72
2023-04-30T10:37:34.903Z,33.12
2023-04-30T10:38:34.906Z,34.01
2023-04-30T10:39:34.883Z,33.42
2023-04-30T10:40:34.879Z,32.01
2023-04-30T10:41:34.878Z,32.42
2023-04-30T10:42:34.851Z,33.52
2023-04-30T10:43:34.860Z,33.11
2023-04-30T10:44:34.836Z,32.69
2023-04-30T10:45:34.858Z,32.29
2023-04-30T10:46:34.917Z,31.78
2023-04-30T10:47:34.823Z,31.17
2023-04-30T10:48:34.809Z,30.77
2023-04-30T10:49:34.797Z,30.86
2023-04-30T10:50:34.771Z,30.96
2023-04-30T10:51:34.765Z,31.45
2023-04-30T10:52:34.746Z,32.15
2023-04-30T10:53:34.756Z,31.93
2023-04-30T10:54:34.734Z,31.34
2023-04-30T10:55:34.722Z,30.73
2023-04-30T10:56:34.757Z,29.95
2023-04-30T10:57:34.716Z,30.26
2023-04-30T10:58:34.713Z,30.68
2023-04-30T10:59:34.714Z,32.39
2023-04-30T11:00:34.671Z,31.90
2023-04-30T11:01:34.765Z,31.78
2023-04-30T11:02:34.678Z,30.89
2023-04-30T11:03:34.672Z,32.36
2023-04-30T11:04:34.658Z,32.46
2023-04-30T11:05:34.626Z,31.55
2023-04-30T11:06:34.737Z,31.74
2023-04-30T11:07:34.601Z,29.64
2023-04-30T11:08:34.615Z,29.64
2023-04-30T11:09:34.587Z,29.72
2023-04-30T11:10:34.561Z,29.63
2023-04-30T11:11:34.562Z,28.94
2023-04-30T11:12:34.555Z,30.04
2023-04-30T11:13:34.607Z,30.23
2023-04-30T11:14:34.552Z,29.34
2023-04-30T11:15:34.594Z,29.44
2023-04-30T11:16:34.761Z,30.63
2023-04-30T11:17:34.546Z,30.63
2023-04-30T11:18:34.507Z,29.64
2023-04-30T11:19:34.513Z,30.33
2023-04-30T11:20:34.471Z,30.41
2023-04-30T11:21:34.468Z,30.52
2023-04-30T11:22:34.449Z,30.90
2023-04-30T11:23:40.475Z,31.39
2023-04-30T11:24:35.442Z,30.71
2023-04-30T11:25:34.420Z,30.30
2023-04-30T11:26:34.413Z,31.10
2023-04-30T11:27:34.410Z,29.91
2023-04-30T11:28:34.392Z,30.50
2023-04-30T11:29:34.431Z,29.60
2023-04-30T11:30:34.373Z,28.80
2023-04-30T11:31:34.452Z,30.19
2023-04-30T11:32:34.419Z,29.60
2023-04-30T11:33:34.362Z,29.78
2023-04-30T11:34:34.344Z,29.19
2023-04-30T11:35:34.320Z,29.17
2023-04-30T11:36:34.306Z,28.58
2023-04-30T11:37:34.309Z,28.67
2023-04-30T11:38:34.284Z,28.18
2023-04-30T11:39:34.301Z,28.38
2023-04-30T11:40:34.267Z,28.97
2023-04-30T11:41:34.277Z,29.77
2023-04-30T11:42:34.252Z,29.66
2023-04-30T11:43:34.267Z,28.99
2023-04-30T11:44:34.229Z,30.39
2023-04-30T11:45:34.226Z,30.80
2023-04-30T11:46:34.223Z,31.60
2023-04-30T11:47:34.248Z,31.60
2023-04-30T11:48:34.220Z,31.10
2023-04-30T11:49:34.192Z,30.49
2023-04-30T11:50:34.167Z,30.79
2023-04-30T11:51:34.162Z,29.28
2023-04-30T11:52:34.160Z,29.48
2023-04-30T11:53:34.164Z,30.58
2023-04-30T11:54:34.128Z,29.97
2023-04-30T11:55:34.123Z,29.27
2023-04-30T11:56:34.107Z,28.78
2023-04-30T11:57:34.105Z,29.07
2023-04-30T11:58:34.112Z,30.06
2023-04-30T11:59:34.087Z,30.16
2023-04-30T12:00:34.068Z,29.75
2023-04-30T12:01:34.082Z,29.75
2023-04-30T12:02:34.130Z,28.65
2023-04-30T12:03:34.159Z,28.05
2023-04-30T12:04:34.148Z,29.03
2023-04-30T12:05:34.028Z,29.93
2023-04-30T12:06:34.070Z,29.64
2023-04-30T12:07:34.008Z,30.15
2023-04-30T12:08:34.020Z,30.39
2023-04-30T12:09:33.983Z,30.91
2023-04-30T12:10:33.971Z,31.72
2023-04-30T12:11:33.979Z,32.03
2023-04-30T12:12:33.956Z,32.33
2023-04-30T12:13:33.959Z,31.23
2023-04-30T12:14:33.936Z,32.51
2023-04-30T12:15:33.922Z,30.32
2023-04-30T12:16:33.945Z,30.91
2023-04-30T12:17:33.959Z,30.02
2023-04-30T12:18:33.911Z,30.33
2023-04-30T12:19:33.878Z,30.65
2023-04-30T12:20:33.869Z,30.76
2023-04-30T12:21:33.863Z,31.15
2023-04-30T12:22:33.854Z,30.97
2023-04-30T12:23:33.877Z,31.27
2023-04-30T12:24:33.852Z,31.96
2023-04-30T12:25:33.853Z,31.15
2023-04-30T12:26:33.805Z,30.76
2023-04-30T12:27:33.812Z,30.66
2023-04-30T12:28:33.808Z,30.77
2023-04-30T12:29:33.778Z,30.99
2023-04-30T12:30:33.775Z,31.48
2023-04-30T12:31:33.824Z,31.37
2023-04-30T12:32:33.786Z,31.27
2023-04-30T12:33:33.764Z,30.76
2023-04-30T12:34:34.060Z,30.77
2023-04-30T12:35:33.719Z,30.76
2023-04-30T12:36:33.718Z,30.86
2023-04-30T12:37:33.705Z,31.45
2023-04-30T12:38:33.716Z,32.15
2023-04-30T12:39:33.676Z,31.14
2023-04-30T12:40:33.673Z,30.84
2023-04-30T12:41:33.664Z,30.84
2023-04-30T12:42:33.652Z,31.04
2023-04-30T12:43:33.658Z,30.15
2023-04-30T12:44:33.627Z,30.55
2023-04-30T12:45:33.606Z,30.15
2023-04-30T12:46:33.664Z,30.05
2023-04-30T12:47:33.619Z,30.35
2023-04-30T12:48:33.605Z,32.05
2023-04-30T12:49:33.577Z,31.15
2023-04-30T12:50:33.577Z,31.34
2023-04-30T12:51:33.553Z,31.14
2023-04-30T12:52:33.556Z,31.54